Time;durP1;ratioP1;P1;durP2;ratioP2;P2;SDS_P1;SDS_P2;PMS_P1;PMS_P2;Temp;Humidity;BMP_temperature;BMP_pressure;BME280_temperature;BME280_humidity;BME280_pressure;Samples;Min_cycle;Max_cycle;Signal;HPM_P1;HPM_P2
2024/02/02 00:00:33;;;;;;;14.40;6.70;;;;;;;1.89;72.11;98141.59;4812125;29;20450;-68
2024/02/02 00:02:59;;;;;;;13.32;6.88;;;;;;;1.78;71.98;98121.06;4794192;29;20084;-68
2024/02/02 00:05:25;;;;;;;12.20;6.90;;;;;;;1.93;72.32;98142.44;4809404;29;20423;-69
2024/02/02 00:07:52;;;;;;;13.60;7.00;;;;;;;1.74;72.21;98110.81;4808634;29;20136;-66
2024/02/02 00:10:19;;;;;;;10.93;5.63;;;;;;;1.86;72.28;98126.19;4793729;29;20141;-69
2024/02/02 00:12:45;;;;;;;10.82;5.45;;;;;;;1.79;72.32;98107.41;4808461;29;20046;-68
2024/02/02 00:15:11;;;;;;;10.20;5.30;;;;;;;2.13;72.22;98155.25;4825266;29;20443;-67
2024/02/02 00:17:37;;;;;;;8.68;4.85;;;;;;;2.19;72.31;98149.25;4793418;29;20042;-68
2024/02/02 00:20:08;;;;;;;10.02;5.28;;;;;;;2.27;72.33;98142.41;4797316;29;20137;-65
2024/02/02 00:22:35;;;;;;;8.45;4.47;;;;;;;2.31;71.78;98141.53;4812623;29;20058;-67
2024/02/02 00:25:07;;;;;;;8.82;4.70;;;;;;;2.28;72.44;98120.16;4828528;29;20058;-66
2024/02/02 00:27:33;;;;;;;9.45;4.90;;;;;;;2.21;71.72;98121.88;4843763;29;20536;-70
2024/02/02 00:29:59;;;;;;;8.05;4.95;;;;;;;2.23;72.07;98130.44;4798395;29;20050;-65
2024/02/02 00:32:25;;;;;;;8.43;4.43;;;;;;;2.09;72.11;98112.47;4808675;29;20050;-68
2024/02/02 00:34:51;;;;;;;10.95;4.57;;;;;;;2.12;71.89;98130.44;4809450;29;20073;-67
2024/02/02 00:37:17;;;;;;;8.88;3.97;;;;;;;1.94;71.80;98113.34;4800771;29;20052;-67
2024/02/02 00:39:45;;;;;;;8.43;4.43;;;;;;;1.79;71.92;98102.25;4796638;29;20042;-69
2024/02/02 00:42:11;;;;;;;7.30;4.30;;;;;;;1.81;71.73;98109.94;4825620;29;20042;-65
2024/02/02 00:44:37;;;;;;;8.50;4.78;;;;;;;1.87;71.72;98121.94;4842407;29;20050;-68
2024/02/02 00:47:09;;;;;;;8.52;4.68;;;;;;;1.76;71.69;98109.97;4798128;29;20148;-67
2024/02/02 00:49:35;;;;;;;9.35;4.20;;;;;;;1.73;71.44;98112.50;4839212;29;20113;-66
2024/02/02 00:52:01;;;;;;;8.88;4.97;;;;;;;1.71;71.59;98111.66;4794426;29;20046;-67
2024/02/02 00:54:27;;;;;;;9.00;4.30;;;;;;;1.73;71.80;98115.09;4808126;29;20178;-68
2024/02/02 00:56:54;;;;;;;11.75;4.70;;;;;;;1.81;71.48;98122.78;4801198;29;20672;-66
2024/02/02 00:59:20;;;;;;;8.43;4.18;;;;;;;1.74;71.41;98116.78;4805742;29;20058;-67
2024/02/02 01:01:46;;;;;;;9.38;4.10;;;;;;;1.73;71.42;98121.94;4808062;29;20050;-67
2024/02/02 01:04:12;;;;;;;7.97;3.80;;;;;;;1.55;71.27;98102.25;4823550;29;20054;-67
2024/02/02 01:06:38;;;;;;;7.57;4.05;;;;;;;1.57;71.26;98113.38;4793214;29;20152;-68
2024/02/02 01:09:05;;;;;;;6.68;3.85;;;;;;;1.62;71.39;98117.66;4838586;29;20147;-68
2024/02/02 01:11:34;;;;;;;5.75;3.20;;;;;;;1.67;71.36;98125.34;4842541;29;20057;-68
2024/02/02 01:14:00;;;;;;;6.40;3.58;;;;;;;1.65;71.08;98115.09;4843020;29;20405;-67
2024/02/02 01:16:29;;;;;;;7.63;3.67;;;;;;;1.70;71.61;98117.63;4842889;29;20072;-67
2024/02/02 01:18:56;;;;;;;9.15;4.03;;;;;;;1.68;71.04;98116.78;4842679;29;20433;-67
2024/02/02 01:21:24;;;;;;;9.57;3.83;;;;;;;1.66;70.88;98113.38;4843318;29;20044;-67
2024/02/02 01:23:51;;;;;;;7.95;3.80;;;;;;;1.57;71.15;98103.13;4826489;29;20075;-67
2024/02/02 01:26:20;;;;;;;8.50;4.43;;;;;;;1.60;71.06;98108.25;4811177;29;20080;-67
2024/02/02 01:28:46;;;;;;;7.20;4.13;;;;;;;1.55;70.98;98089.44;4821907;29;20479;-68
2024/02/02 01:31:12;;;;;;;7.25;3.80;;;;;;;1.61;70.90;98095.41;4803321;29;20278;-68
2024/02/02 01:33:39;;;;;;;7.82;4.05;;;;;;;1.61;70.96;98094.59;4826179;29;20057;-66
2024/02/02 01:36:06;;;;;;;6.53;3.88;;;;;;;1.64;70.89;98104.84;4800003;29;20077;-65
2024/02/02 01:38:32;;;;;;;8.18;3.95;;;;;;;1.62;70.82;98094.56;4807328;29;20054;-67
2024/02/02 01:40:58;;;;;;;7.90;4.15;;;;;;;1.58;70.47;98089.44;4807742;29;20061;-67
2024/02/02 01:43:26;;;;;;;7.88;3.72;;;;;;;1.49;70.23;98082.63;4769564;29;20050;-68
2024/02/02 01:45:52;;;;;;;5.93;3.47;;;;;;;1.41;70.29;98053.53;4826328;29;20103;-68
2024/02/02 01:48:18;;;;;;;6.97;3.50;;;;;;;1.50;70.41;98085.16;4810198;29;20053;-66
2024/02/02 01:50:45;;;;;;;7.13;3.55;;;;;;;1.32;70.55;98056.97;4825467;29;20450;-68
2024/02/02 01:53:11;;;;;;;7.78;3.50;;;;;;;1.39;70.30;98068.06;4810415;29;20045;-66
2024/02/02 01:55:38;;;;;;;6.97;3.35;;;;;;;1.46;70.36;98080.03;4825846;29;20056;-66
2024/02/02 01:58:04;;;;;;;12.55;3.45;;;;;;;1.47;70.48;98077.47;4841557;29;20054;-66
2024/02/02 02:00:30;;;;;;;7.90;3.83;;;;;;;1.39;70.38;98075.75;4823696;29;20475;-68
2024/02/02 02:02:57;;;;;;;7.40;3.95;;;;;;;1.43;70.13;98080.91;4819241;29;20137;-68
2024/02/02 02:05:23;;;;;;;10.48;4.47;;;;;;;1.26;70.25;98056.94;4801698;29;20158;-67
2024/02/02 02:07:49;;;;;;;10.20;4.38;;;;;;;1.28;70.08;98057.81;4802733;29;20137;-67
2024/02/02 02:10:15;;;;;;;10.48;4.60;;;;;;;1.45;70.25;98084.31;4817736;29;20061;-68
2024/02/02 02:12:42;;;;;;;12.13;4.95;;;;;;;1.40;70.27;98067.22;4802653;29;20049;-68
2024/02/02 02:15:10;;;;;;;8.80;4.63;;;;;;;1.42;70.15;98068.94;4788514;29;20057;-67
2024/02/02 02:17:37;;;;;;;7.28;4.05;;;;;;;1.35;70.34;98062.94;4798972;29;20109;-68
2024/02/02 02:20:25;;;;;;;9.38;3.80;;;;;;;1.39;69.85;98068.94;4796708;29;20058;-69
2024/02/02 02:22:54;;;;;;;7.80;3.00;;;;;;;1.28;69.82;98071.50;4792765;29;20050;-68
2024/02/02 02:25:20;;;;;;;8.18;3.72;;;;;;;1.27;69.95;98063.78;4791955;29;20119;-65
2024/02/02 02:27:46;;;;;;;7.38;3.45;;;;;;;1.28;69.82;98075.75;4806413;29;20215;-68
2024/02/02 02:30:13;;;;;;;5.43;3.38;;;;;;;1.13;70.06;98062.09;4806747;29;20046;-67
2024/02/02 02:32:39;;;;;;;5.43;2.95;;;;;;;1.10;70.18;98056.09;4814128;29;20053;-67
2024/02/02 02:35:06;;;;;;;6.32;3.05;;;;;;;1.16;69.86;98072.34;4792583;29;20070;-68
2024/02/02 02:37:32;;;;;;;7.68;3.55;;;;;;;1.22;70.20;98075.75;4791595;29;20050;-66
2024/02/02 02:39:58;;;;;;;7.57;3.15;;;;;;;1.24;70.37;98074.03;4807130;29;20042;-68
2024/02/02 02:42:24;;;;;;;7.22;2.85;;;;;;;1.12;70.11;98047.56;4791827;29;20081;-66
2024/02/02 02:44:50;;;;;;;10.73;3.22;;;;;;;1.32;69.89;98074.91;4792352;29;20042;-68
2024/02/02 02:47:16;;;;;;;10.60;3.70;;;;;;;1.24;69.91;98069.78;4806659;29;20051;-67
2024/02/02 02:49:42;;;;;;;8.02;3.47;;;;;;;1.28;70.07;98071.50;4791401;29;20043;-67
2024/02/02 02:52:08;;;;;;;8.23;3.65;;;;;;;1.28;70.06;98071.50;4789538;29;20141;-65
2024/02/02 02:54:34;;;;;;;5.75;3.05;;;;;;;1.26;70.04;98067.22;4790813;29;20141;-66
2024/02/02 02:57:01;;;;;;;5.80;3.30;;;;;;;1.26;69.68;98062.94;4793050;29;20135;-68
2024/02/02 02:59:28;;;;;;;7.93;3.30;;;;;;;1.24;69.76;98069.78;4791278;29;20038;-68
2024/02/02 03:01:55;;;;;;;6.35;3.05;;;;;;;1.25;69.99;98076.63;4805957;29;20058;-67
2024/02/02 03:04:21;;;;;;;5.70;2.88;;;;;;;1.09;69.53;98045.00;4787769;29;20085;-67
2024/02/02 03:06:47;;;;;;;10.10;3.13;;;;;;;1.18;69.75;98070.63;4822385;29;20046;-69
2024/02/02 03:09:15;;;;;;;6.43;3.00;;;;;;;1.12;69.91;98064.63;4823871;29;20046;-66
2024/02/02 03:11:44;;;;;;;7.80;3.35;;;;;;;1.25;70.19;98071.50;4803059;29;20054;-66
2024/02/02 03:14:11;;;;;;;9.23;3.78;;;;;;;1.09;69.71;98039.88;4804053;29;20078;-67
2024/02/02 03:16:37;;;;;;;6.80;2.80;;;;;;;1.19;69.86;98067.22;4782380;29;20049;-67
2024/02/02 03:19:04;;;;;;;6.85;2.97;;;;;;;1.16;69.69;98046.72;4803806;29;20049;-68
2024/02/02 03:21:31;;;;;;;7.43;3.78;;;;;;;1.19;69.96;98054.41;4805606;29;20402;-66
2024/02/02 03:23:57;;;;;;;5.90;3.63;;;;;;;1.22;69.65;98066.34;4776115;29;20084;-66
2024/02/02 03:26:23;;;;;;;4.80;3.08;;;;;;;1.10;69.76;98041.56;4788542;29;20047;-67
2024/02/02 03:28:49;;;;;;;6.85;3.10;;;;;;;1.03;69.82;98032.16;4790037;29;20038;-69
2024/02/02 03:31:15;;;;;;;6.68;3.45;;;;;;;1.20;69.69;98058.69;4815834;29;20047;-67
2024/02/02 03:33:41;;;;;;;7.07;3.03;;;;;;;1.11;69.60;98042.41;4806757;29;20042;-69
2024/02/02 03:36:07;;;;;;;5.28;2.72;;;;;;;1.10;69.55;98044.13;4805783;29;20050;-70
2024/02/02 03:38:33;;;;;;;6.88;3.88;;;;;;;1.05;69.61;98028.78;4806085;29;20077;-68
2024/02/02 03:40:59;;;;;;;7.10;3.53;;;;;;;1.04;69.68;98021.06;4822250;29;20084;-68
2024/02/02 03:43:25;;;;;;;8.50;4.90;;;;;;;0.99;69.44;98017.66;4823256;29;20046;-69
2024/02/02 03:45:51;;;;;;;10.13;4.05;;;;;;;1.11;69.88;98052.66;4820318;29;20111;-66
2024/02/02 03:48:18;;;;;;;12.98;6.75;;;;;;;1.00;69.78;98030.47;4796975;29;20058;-68
2024/02/02 03:50:44;;;;;;;13.05;6.47;;;;;;;1.02;69.50;98040.69;4790653;29;20146;-68
2024/02/02 03:53:10;;;;;;;12.98;7.07;;;;;;;0.93;69.66;98018.50;4789922;29;20601;-66
2024/02/02 03:55:36;;;;;;;13.38;6.85;;;;;;;1.08;69.67;98047.56;4804882;29;20132;-69
2024/02/02 03:58:02;;;;;;;11.88;6.80;;;;;;;0.92;69.92;98018.50;4789730;29;20530;-68
2024/02/02 04:00:28;;;;;;;13.82;7.47;;;;;;;0.94;69.32;98022.75;4818155;29;20043;-69
2024/02/02 04:02:54;;;;;;;14.60;7.05;;;;;;;0.86;69.62;98003.97;4793604;29;20055;-66
2024/02/02 04:05:20;;;;;;;14.23;7.55;;;;;;;1.03;69.97;98039.84;4820848;29;20142;-66
2024/02/02 04:07:47;;;;;;;11.70;6.43;;;;;;;1.17;69.68;98050.13;4826186;29;20478;-66
2024/02/02 04:10:14;;;;;;;9.70;5.97;;;;;;;1.16;69.58;98058.66;4788165;29;20054;-65
2024/02/02 04:12:40;;;;;;;11.82;6.35;;;;;;;1.07;69.96;98033.03;4819106;29;20225;-67
2024/02/02 04:15:07;;;;;;;14.18;6.57;;;;;;;1.18;69.59;98065.50;4802481;29;20089;-66
2024/02/02 04:17:33;;;;;;;13.18;6.55;;;;;;;1.23;69.76;98055.25;4788054;29;20053;-66
2024/02/02 04:19:59;;;;;;;11.40;6.05;;;;;;;1.29;69.73;98054.41;4817692;29;20041;-67
2024/02/02 04:22:30;;;;;;;12.18;5.88;;;;;;;1.25;69.72;98061.25;4802030;29;20042;-65
2024/02/02 04:24:56;;;;;;;11.57;6.80;;;;;;;1.23;69.47;98036.44;4819129;29;20043;-63
2024/02/02 04:27:22;;;;;;;14.23;6.97;;;;;;;1.33;69.79;98046.69;4795426;29;20053;-67
2024/02/02 04:29:48;;;;;;;13.63;6.78;;;;;;;1.49;69.35;98057.81;4780672;29;20046;-67
2024/02/02 04:32:14;;;;;;;15.38;6.32;;;;;;;1.49;69.18;98046.72;4788003;29;20057;-66
2024/02/02 04:34:40;;;;;;;11.13;5.70;;;;;;;1.40;69.73;98039.03;4800769;29;20042;-67
2024/02/02 04:37:06;;;;;;;12.27;6.53;;;;;;;1.43;69.13;98045.03;4804198;29;20050;-67
2024/02/02 04:39:32;;;;;;;12.80;6.45;;;;;;;1.37;69.52;98029.63;4803846;29;20038;-66
2024/02/02 04:41:58;;;;;;;12.93;6.95;;;;;;;1.48;69.95;98038.16;4803627;29;20042;-67
2024/02/02 04:44:25;;;;;;;12.20;6.30;;;;;;;1.53;69.33;98056.13;4774471;29;20146;-69
2024/02/02 04:46:51;;;;;;;15.77;7.40;;;;;;;1.58;69.49;98051.81;4819799;29;20093;-66
2024/02/02 04:49:17;;;;;;;17.48;8.00;;;;;;;1.52;69.37;98038.16;4820710;29;20042;-69
2024/02/02 04:51:43;;;;;;;14.48;8.57;;;;;;;1.56;69.17;98035.59;4803826;29;20048;-67
2024/02/02 04:54:09;;;;;;;20.33;8.07;;;;;;;1.53;69.73;98048.44;4790477;29;20042;-67
2024/02/02 04:56:35;;;;;;;13.77;7.38;;;;;;;1.58;69.27;98056.13;4820849;29;20038;-67
2024/02/02 04:59:01;;;;;;;12.57;5.60;;;;;;;1.57;69.08;98060.38;4804696;29;20050;-70
2024/02/02 05:01:29;;;;;;;10.63;4.97;;;;;;;1.43;69.21;98041.59;4789651;29;20045;-68
2024/02/02 05:03:55;;;;;;;8.25;4.90;;;;;;;1.46;69.40;98045.00;4811756;29;20044;-67
2024/02/02 05:06:22;;;;;;;8.43;4.43;;;;;;;1.52;69.39;98050.97;4804424;29;20048;-69
2024/02/02 05:08:48;;;;;;;9.93;5.35;;;;;;;1.46;69.31;98044.16;4803982;29;20138;-67
2024/02/02 05:11:14;;;;;;;8.88;3.95;;;;;;;1.35;68.93;98023.66;4803756;29;20107;-66
2024/02/02 05:13:40;;;;;;;11.57;4.10;;;;;;;1.46;69.54;98039.88;4820503;29;20064;-66
2024/02/02 05:16:07;;;;;;;8.15;4.57;;;;;;;1.55;69.32;98058.69;4789458;29;20068;-68
2024/02/02 05:18:33;;;;;;;10.73;4.40;;;;;;;1.49;69.21;98041.59;4803563;29;20042;-68
2024/02/02 05:20:59;;;;;;;7.45;3.92;;;;;;;1.53;69.16;98052.69;4789727;29;20034;-67
2024/02/02 05:23:25;;;;;;;8.32;3.60;;;;;;;1.55;69.07;98056.13;4802483;29;20046;-67
2024/02/02 05:25:51;;;;;;;7.25;4.03;;;;;;;1.56;69.28;98055.25;4794952;29;20093;-66
2024/02/02 05:28:17;;;;;;;9.60;4.00;;;;;;;1.50;69.41;98046.72;4803221;29;20081;-67
2024/02/02 05:30:43;;;;;;;7.88;3.83;;;;;;;1.68;69.30;98060.38;4802946;29;20068;-66
2024/02/02 05:33:09;;;;;;;9.63;3.95;;;;;;;1.66;69.51;98049.25;4819437;29;20099;-66
2024/02/02 05:35:35;;;;;;;10.15;4.57;;;;;;;1.60;69.36;98024.47;4796029;29;20133;-67
2024/02/02 05:38:01;;;;;;;9.45;4.90;;;;;;;1.76;69.11;98050.97;4802964;29;20236;-68
2024/02/02 05:40:27;;;;;;;9.98;4.20;;;;;;;1.68;69.29;98042.41;4788985;29;20054;-68
2024/02/02 05:42:53;;;;;;;10.95;4.07;;;;;;;1.80;69.61;98052.69;4817977;29;20050;-68
2024/02/02 05:45:19;;;;;;;8.13;4.22;;;;;;;1.80;69.12;98042.41;4773261;29;20050;-67
2024/02/02 05:47:45;;;;;;;7.95;4.55;;;;;;;1.75;69.14;98043.28;4811213;29;20046;-67
2024/02/02 05:50:13;;;;;;;9.25;4.00;;;;;;;1.68;69.37;98037.28;4819012;29;20053;-64
2024/02/02 05:52:39;;;;;;;15.10;5.00;;;;;;;1.82;69.04;98067.22;4788413;29;20217;-68
2024/02/02 05:55:05;;;;;;;11.35;5.07;;;;;;;1.77;69.34;98049.25;4795346;29;20046;-70
2024/02/02 05:57:31;;;;;;;11.77;4.47;;;;;;;1.90;69.03;98056.06;4802607;29;20118;-68
2024/02/02 05:59:58;;;;;;;11.32;5.07;;;;;;;2.02;69.08;98059.47;4773407;29;20066;-68
2024/02/02 06:02:24;;;;;;;12.43;5.05;;;;;;;2.06;69.04;98062.03;4793886;29;20073;-67
2024/02/02 06:04:51;;;;;;;17.77;6.35;;;;;;;2.04;68.80;98053.47;4819135;29;20434;-68
2024/02/02 06:07:17;;;;;;;13.68;6.30;;;;;;;2.06;68.93;98058.59;4817715;29;20089;-67
2024/02/02 06:09:44;;;;;;;10.75;4.07;;;;;;;1.92;68.71;98035.53;4788546;29;20055;-68
2024/02/02 06:12:10;;;;;;;10.07;4.55;;;;;;;2.00;69.17;98038.94;4773237;29;20487;-69
2024/02/02 06:14:36;;;;;;;7.53;4.30;;;;;;;1.79;68.68;98007.34;4802434;29;20042;-68
2024/02/02 06:17:03;;;;;;;9.77;4.75;;;;;;;2.14;69.42;98056.00;4772786;29;20074;-67
2024/02/02 06:19:29;;;;;;;15.02;4.43;;;;;;;2.11;68.22;98044.06;4801777;29;20054;-65
2024/02/02 06:21:55;;;;;;;8.77;4.20;;;;;;;2.14;68.64;98048.31;4819318;29;20099;-67
2024/02/02 06:24:24;;;;;;;10.27;4.38;;;;;;;2.09;68.63;98040.63;4795425;29;20058;-67
2024/02/02 06:26:50;;;;;;;12.95;4.00;;;;;;;2.07;68.54;98045.78;4787390;29;20045;-67
2024/02/02 06:29:18;;;;;;;9.70;3.75;;;;;;;2.07;68.55;98042.34;4802175;29;20524;-65
2024/02/02 06:31:44;;;;;;;6.70;3.83;;;;;;;1.95;68.54;98018.44;4803075;29;20067;-68
2024/02/02 06:34:10;;;;;;;8.02;3.88;;;;;;;2.13;68.57;98046.59;4793828;29;20126;-67
2024/02/02 06:36:36;;;;;;;9.15;3.80;;;;;;;2.08;68.21;98038.94;4771799;29;20072;-67
2024/02/02 06:39:02;;;;;;;8.60;3.90;;;;;;;2.26;68.92;98061.97;4795635;29;20110;-68
2024/02/02 06:41:28;;;;;;;12.27;4.13;;;;;;;2.41;68.32;98061.06;4802793;29;20042;-68
2024/02/02 06:43:55;;;;;;;7.63;3.35;;;;;;;2.50;68.25;98061.91;4814738;29;20046;-68
2024/02/02 06:46:21;;;;;;;10.80;4.18;;;;;;;2.47;68.11;98043.94;4787947;29;20200;-69
2024/02/02 06:48:48;;;;;;;10.55;4.32;;;;;;;2.59;68.25;98056.69;4788216;29;20092;-69
2024/02/02 06:51:14;;;;;;;8.52;4.05;;;;;;;2.47;67.82;98049.06;4814302;29;20127;-70
2024/02/02 06:53:40;;;;;;;8.93;4.07;;;;;;;2.03;67.59;98005.59;4789659;29;20091;-68
2024/02/02 06:56:46;;;;;;;11.20;4.97;;;;;;;2.33;67.95;98065.34;4788512;29;20137;-70
2024/02/02 06:59:12;;;;;;;9.65;4.68;;;;;;;2.31;68.12;98066.22;4747140;30;20047;-68
2024/02/02 07:01:39;;;;;;;16.65;5.97;;;;;;;2.22;68.46;98062.81;4780545;29;20043;-68
2024/02/02 07:04:10;;;;;;;11.65;6.85;;;;;;;2.19;68.41;98067.13;4800981;29;20057;-67
2024/02/02 07:06:36;;;;;;;12.73;6.30;;;;;;;2.16;68.86;98046.59;4776081;29;20141;-71
2024/02/02 07:09:17;;;;;;;12.18;5.75;;;;;;;2.38;68.71;98057.66;4823601;29;20050;-68
2024/02/02 07:12:00;;;;;;;11.18;4.47;;;;;;;2.52;68.46;98067.88;4821639;29;20038;-67
2024/02/02 07:14:49;;;;;;;8.60;4.30;;;;;;;2.54;68.27;98063.56;4806409;29;20046;-68
2024/02/02 07:17:37;;;;;;;10.88;4.15;;;;;;;2.40;67.93;98048.25;4791480;29;20054;-70
2024/02/02 07:20:30;;;;;;;6.93;3.22;;;;;;;2.51;68.59;98074.72;4822360;29;20505;-71
2024/02/02 07:23:05;;;;;;;9.65;3.67;;;;;;;2.44;68.65;98049.91;4819030;29;20514;-72
2024/02/02 07:25:37;;;;;;;5.47;3.55;;;;;;;2.82;68.61;98071.16;4814794;29;20149;-71
2024/02/02 07:28:06;;;;;;;6.55;3.70;;;;;;;3.13;68.93;98081.25;4802318;29;20140;-72
2024/02/02 07:30:44;;;;;;;7.05;3.75;;;;;;;3.44;68.46;98078.47;4791396;29;20079;-72
2024/02/02 07:33:38;;;;;;;6.72;3.20;;;;;;;3.72;68.54;98080.81;4822776;29;20053;-70
2024/02/02 07:36:07;;;;;;;7.05;3.50;;;;;;;3.82;68.69;98073.88;4806626;29;20046;-70
2024/02/02 07:38:36;;;;;;;5.28;3.22;;;;;;;3.84;67.50;98078.16;4818911;29;20050;-70
2024/02/02 07:41:13;;;;;;;6.88;3.35;;;;;;;3.84;67.37;98078.16;4813666;29;20124;-69
2024/02/02 07:43:39;;;;;;;5.63;2.75;;;;;;;3.66;67.28;98058.56;4821442;29;20056;-69
2024/02/02 07:46:07;;;;;;;8.00;3.80;;;;;;;3.24;67.51;98029.78;4812784;29;20053;-70
2024/02/02 07:48:34;;;;;;;7.43;3.63;;;;;;;3.30;67.12;98087.13;4822804;29;20406;-71
2024/02/02 07:51:00;;;;;;;7.80;3.67;;;;;;;3.20;67.69;98093.19;4790213;29;20096;-69
2024/02/02 07:53:26;;;;;;;7.60;3.60;;;;;;;3.19;67.19;98101.78;4787577;29;20042;-69
2024/02/02 07:55:53;;;;;;;6.03;3.28;;;;;;;3.16;67.19;98089.81;4774659;29;20047;-70
2024/02/02 07:58:22;;;;;;;4.50;2.78;;;;;;;3.35;67.68;98099.13;4805569;29;20577;-68
2024/02/02 08:00:49;;;;;;;7.30;2.95;;;;;;;3.36;67.83;98099.09;4805704;29;20096;-67
2024/02/02 08:03:15;;;;;;;5.70;2.75;;;;;;;3.36;67.88;98075.94;4820006;29;20058;-67
2024/02/02 08:05:41;;;;;;;7.55;3.20;;;;;;;3.69;67.96;98096.28;4826120;29;20051;-65
2024/02/02 08:08:08;;;;;;;5.05;2.97;;;;;;;3.73;67.58;98078.25;4792922;29;20074;-68
2024/02/02 08:10:34;;;;;;;4.88;2.75;;;;;;;3.82;67.67;98085.03;4821053;29;20488;-72
2024/02/02 08:13:01;;;;;;;5.10;2.72;;;;;;;3.75;67.19;98083.38;4820872;29;20602;-68
2024/02/02 08:15:27;;;;;;;3.90;2.65;;;;;;;3.56;67.67;98083.53;4783354;29;20068;-69
2024/02/02 08:17:53;;;;;;;4.88;2.92;;;;;;;3.53;67.34;98093.00;4802583;29;20096;-71
2024/02/02 08:20:19;;;;;;;5.40;2.63;;;;;;;3.56;67.30;98104.09;4822646;29;20046;-69
2024/02/02 08:22:49;;;;;;;4.43;2.28;;;;;;;3.57;67.50;98110.97;4790662;29;20038;-68
2024/02/02 08:25:15;;;;;;;6.30;2.33;;;;;;;3.51;67.91;98095.56;4816744;29;20054;-70
2024/02/02 08:27:41;;;;;;;5.25;2.20;;;;;;;3.56;67.48;98109.25;4804666;29;20048;-72
2024/02/02 08:30:08;;;;;;;5.70;1.70;;;;;;;3.31;67.28;98085.44;4796986;29;20058;-69
2024/02/02 08:32:35;;;;;;;3.60;1.85;;;;;;;3.46;67.67;98115.31;4806098;29;20149;-70
2024/02/02 08:35:01;;;;;;;5.15;1.73;;;;;;;3.36;67.11;98085.41;4801138;29;20083;-68
2024/02/02 08:37:27;;;;;;;2.63;1.30;;;;;;;3.42;67.03;98096.50;4805425;29;20038;-69
2024/02/02 08:39:56;;;;;;;6.28;1.60;;;;;;;3.69;67.13;98114.28;4802446;29;20045;-68
2024/02/02 08:42:23;;;;;;;4.97;1.52;;;;;;;3.74;66.50;98128.84;4783548;29;20051;-70
2024/02/02 08:44:51;;;;;;;5.32;1.77;;;;;;;3.79;66.42;98121.06;4788659;29;20056;-71
2024/02/02 08:47:21;;;;;;;4.82;1.67;;;;;;;4.00;66.70;98106.31;4804074;29;20363;-70
2024/02/02 08:49:59;;;;;;;3.00;1.30;;;;;;;3.98;65.51;98121.75;4801926;29;20038;-71
2024/02/02 08:52:33;;;;;;;2.33;1.42;;;;;;;3.91;65.33;98138.97;4800631;29;20057;-70
2024/02/02 08:55:04;;;;;;;6.95;1.88;;;;;;;3.99;65.21;98138.06;4774597;29;20094;-70
2024/02/02 08:57:49;;;;;;;1.92;1.00;;;;;;;3.88;64.74;98090.09;4817453;29;20054;-72
2024/02/02 09:00:38;;;;;;;3.97;1.20;;;;;;;4.07;64.02;98131.97;4804647;29;20046;-70
2024/02/02 09:03:32;;;;;;;3.70;1.20;;;;;;;3.98;63.50;98139.75;4804838;29;20053;-69
2024/02/02 09:06:04;;;;;;;5.93;1.55;;;;;;;3.86;63.88;98150.19;4804240;29;20476;-68
2024/02/02 09:08:40;;;;;;;2.63;1.35;;;;;;;3.93;63.37;98126.13;4818513;29;20050;-69
2024/02/02 09:11:17;;;;;;;3.30;1.17;;;;;;;4.09;63.89;98154.28;4804905;29;20129;-67
2024/02/02 09:13:44;;;;;;;2.50;1.38;;;;;;;4.09;63.10;98154.28;4820401;29;20191;-68
2024/02/02 09:16:18;;;;;;;1.42;1.10;;;;;;;4.06;62.65;98162.91;4803470;29;20095;-66
2024/02/02 09:18:53;;;;;;;4.13;1.42;;;;;;;3.89;61.66;98148.41;4802533;29;20050;-67
2024/02/02 09:21:27;;;;;;;2.50;1.20;;;;;;;3.66;61.63;98145.19;4788515;29;20061;-69
2024/02/02 09:23:54;;;;;;;5.00;1.45;;;;;;;3.63;61.06;98146.06;4819436;29;20529;-68
2024/02/02 09:26:40;;;;;;;3.53;1.20;;;;;;;3.83;61.37;98173.34;4819932;29;20187;-70
2024/02/02 09:29:09;;;;;;;2.95;1.30;;;;;;;3.99;61.46;98174.09;4818819;29;20046;-70
2024/02/02 09:31:38;;;;;;;4.75;1.20;;;;;;;3.97;60.93;98144.94;4801521;29;20042;-66
2024/02/02 09:34:10;;;;;;;4.32;1.38;;;;;;;4.17;60.48;98179.09;4788377;29;20561;-69
2024/02/02 09:36:38;;;;;;;2.90;1.30;;;;;;;4.01;60.19;98174.94;4821640;29;20091;-70
2024/02/02 09:39:09;;;;;;;4.25;1.20;;;;;;;3.87;59.21;98164.75;4821377;29;20046;-72
2024/02/02 09:41:47;;;;;;;4.75;1.13;;;;;;;4.12;59.46;98175.69;4800201;29;20054;-73
2024/02/02 09:45:11;;;;;;;3.53;1.20;;;;;;;4.22;59.24;98185.06;4804688;29;20046;-73
2024/02/02 09:47:53;;;;;;;1.83;1.20;;;;;;;4.30;58.88;98168.69;4733131;30;20036;-72
2024/02/02 09:50:27;;;;;;;;;;;;;;;4.17;57.95;98179.09;4731892;30;20052;-70
2024/02/02 09:52:56;;;;;;;3.05;0.90;;;;;;;4.33;58.48;98194.38;4760630;29;20414;-70
2024/02/02 09:55:34;;;;;;;3.33;1.48;;;;;;;4.57;57.75;98182.13;4818888;29;20463;-71
2024/02/02 09:58:00;;;;;;;2.80;1.05;;;;;;;4.46;56.30;98179.66;4803885;29;20061;-72
2024/02/02 10:00:35;;;;;;;1.45;0.70;;;;;;;4.27;56.80;98194.47;4818933;29;20043;-70
2024/02/02 10:03:26;;;;;;;4.20;1.10;;;;;;;4.05;56.10;98179.19;4774835;29;20042;-70
2024/02/02 10:06:14;;;;;;;2.70;0.90;;;;;;;4.03;55.63;98197.22;4819986;29;20111;-69
2024/02/02 10:09:12;;;;;;;1.13;0.70;;;;;;;4.09;55.93;98205.75;4803966;29;20038;-68
2024/02/02 10:11:50;;;;;;;1.55;0.90;;;;;;;4.49;56.06;98201.13;4782335;29;20907;-68
2024/02/02 10:14:28;;;;;;;2.50;0.73;;;;;;;5.16;55.63;98187.47;4812179;29;20042;-68
2024/02/02 10:17:19;;;;;;;3.13;1.00;;;;;;;5.91;54.47;98189.88;4819898;29;20050;-68
2024/02/02 10:20:07;;;;;;;3.75;1.15;;;;;;;6.59;53.17;98178.41;4820140;29;20068;-70
2024/02/02 10:23:03;;;;;;;1.77;0.60;;;;;;;6.57;53.09;98172.41;4802109;29;20489;-69
2024/02/02 10:25:51;;;;;;;2.45;0.68;;;;;;;6.21;52.26;98186.84;4802306;29;20140;-69
2024/02/02 10:28:23;;;;;;;3.15;0.95;;;;;;;5.85;51.49;98189.94;4820692;29;20395;-69
2024/02/02 10:31:00;;;;;;;2.33;0.90;;;;;;;5.60;51.65;98199.78;4804021;29;20047;-71
2024/02/02 10:33:38;;;;;;;4.93;1.10;;;;;;;5.49;51.13;98187.91;4815713;29;20050;-70
2024/02/02 10:36:10;;;;;;;2.28;0.90;;;;;;;5.34;50.29;98188.09;4804153;29;20045;-70
2024/02/02 10:38:51;;;;;;;1.23;0.80;;;;;;;5.16;50.92;98190.06;4792863;29;20517;-70
2024/02/02 10:41:30;;;;;;;1.10;0.80;;;;;;;5.02;50.47;98190.22;4791641;29;20079;-67
2024/02/02 10:44:02;;;;;;;2.50;1.10;;;;;;;4.93;50.81;98192.94;4806738;29;20421;-70
2024/02/02 10:46:37;;;;;;;4.93;1.40;;;;;;;4.94;50.42;98192.06;4819106;29;21531;-67
2024/02/02 10:49:15;;;;;;;5.53;1.05;;;;;;;4.90;49.93;98200.69;4794934;29;20055;-70
2024/02/02 10:52:13;;;;;;;2.25;0.90;;;;;;;4.71;49.81;98203.47;4774119;29;20054;-68
2024/02/02 10:55:07;;;;;;;1.73;0.75;;;;;;;4.66;50.05;98210.41;4797918;29;20073;-69
2024/02/02 10:57:50;;;;;;;3.10;1.10;;;;;;;4.44;50.19;98223.50;4795931;29;20050;-70
2024/02/02 11:00:23;;;;;;;3.38;0.70;;;;;;;4.49;49.90;98213.13;4806472;29;20073;-69
2024/02/02 11:03:27;;;;;;;3.53;0.85;;;;;;;4.42;48.94;98222.66;4805048;29;20080;-68
2024/02/02 11:05:56;;;;;;;3.03;0.75;;;;;;;4.23;49.49;98237.38;4782697;30;20058;-69
2024/02/02 11:08:27;;;;;;;2.80;0.70;;;;;;;4.07;49.85;98241.84;4775364;30;20039;-70
2024/02/02 11:10:59;;;;;;;3.08;0.88;;;;;;;4.03;49.93;98250.44;4774917;29;20056;-69
2024/02/02 11:13:28;;;;;;;3.05;1.20;;;;;;;3.85;48.75;98247.13;4791978;29;20600;-68
2024/02/02 11:16:17;;;;;;;4.07;0.60;;;;;;;3.46;48.31;98225.91;4792845;29;20046;-68
2024/02/02 11:19:06;;;;;;;1.38;0.70;;;;;;;3.25;48.41;98224.31;4808383;29;20494;-72
2024/02/02 11:21:38;;;;;;;2.05;1.00;;;;;;;3.46;48.97;98256.75;4819649;29;20441;-74
2024/02/02 11:24:33;;;;;;;2.22;0.73;;;;;;;3.26;47.93;98241.44;4815759;29;20054;-71
2024/02/02 11:27:08;;;;;;;2.00;0.68;;;;;;;3.27;48.25;98251.69;4818823;29;20379;-71
2024/02/02 11:29:46;;;;;;;1.30;0.60;;;;;;;3.05;47.65;98255.22;4807124;29;20042;-70
2024/02/02 11:32:31;;;;;;;4.53;0.73;;;;;;;2.90;47.88;98263.81;4807891;29;20047;-70
2024/02/02 11:35:17;;;;;;;2.22;0.70;;;;;;;2.78;48.29;98272.41;4809215;29;20042;-72
2024/02/02 11:38:21;;;;;;;1.27;0.68;;;;;;;2.68;47.44;98282.72;4804438;29;20054;-72
2024/02/02 11:40:49;;;;;;;1.40;0.73;;;;;;;2.58;47.74;98275.84;4780264;29;20046;-70
2024/02/02 11:43:16;;;;;;;4.57;0.70;;;;;;;2.57;47.92;98276.72;4804820;29;20050;-71
2024/02/02 11:45:46;;;;;;;1.38;0.70;;;;;;;2.52;47.68;98268.19;4791932;29;20492;-71
2024/02/02 11:48:42;;;;;;;2.05;0.70;;;;;;;2.70;47.19;98269.84;4821730;29;20042;-71
2024/02/02 11:51:10;;;;;;;2.55;0.70;;;;;;;2.69;47.18;98281.84;4794232;29;20049;-70
2024/02/02 11:53:57;;;;;;;4.63;1.33;;;;;;;2.69;46.88;98263.88;4821354;29;20410;-69